Carnival Freedom — 3EBL5 — position and weather

sailwx.info

Track history (hours):
 
Tides and Currents Weather Stations Pressure Air Temp Water Temp Dewpoint Dewpoint Depression Visibility Wind Speed Wind Dir Waves Ship Positions

Carnival Freedom

Last reported at 2017-Dec-11 16:59 UTC. Time now 2017-Dec-12 23:47 UTC.
Position N 20°29' W 086°59'.

Type: Ship. MMSI: 371154000.

Date/timePositionNaut miles runAvg speedWind from/ knotsBaromVisibWave heightAir tempDewpointWater temp
2017-Dec-11 16:59N 20°29' W 086°59'0 0.0
2017-Dec-11 16:29N 20°29' W 086°59'0 0.0
2017-Dec-11 15:59N 20°29' W 086°59'0 0.0
2017-Dec-11 15:29N 20°29' W 086°59'0 0.0
2017-Dec-11 14:59N 20°29' W 086°59'0 0.4
2017-Dec-11 14:30N 20°29' W 086°59'5 9.3
2017-Dec-11 14:00N 20°33' W 086°59'611.9
2017-Dec-11 13:30N 20°38' W 086°56'45716.6
2017-Dec-10 10:00N 27°00' W 091°30'22119.8 050 / 151028.010.8 17.0-7.316.0
2017-Dec-09 22:50N 29°21' W 094°43'410.7
2017-Dec-09 22:30N 29°19' W 094°47'1 0.1
2017-Dec-09 15:21N 29°19' W 094°48'0 0.0
2017-Dec-09 14:42N 29°19' W 094°48'0 0.0
2017-Dec-09 14:25N 29°19' W 094°48'0 0.0
2017-Dec-09 13:55N 29°19' W 094°48'1 1.3
2017-Dec-09 13:30N 29°19' W 094°47'2 4.1
2017-Dec-09 13:00N 29°21' W 094°46'67318.7
2017-Dec-08 00:57N 20°41' W 086°53'1022.5
2017-Dec-08 00:30N 20°33' W 086°59'5 9.9
2017-Dec-08 00:00N 20°29' W 086°59'0 0.0
2017-Dec-07 23:30N 20°29' W 086°59'0 0.0
2017-Dec-07 23:00N 20°29' W 086°59'0 0.0
2017-Dec-07 22:30N 20°29' W 086°59'0 0.0
2017-Dec-07 22:00N 20°29' W 086°59'0 0.0
2017-Dec-07 21:30N 20°29' W 086°59'0 0.0
2017-Dec-07 21:00N 20°29' W 086°59'0 0.0
2017-Dec-07 20:30N 20°29' W 086°59'0 0.0
2017-Dec-07 19:57N 20°29' W 086°59'0 0.0
2017-Dec-07 19:30N 20°29' W 086°59'0 0.0
2017-Dec-07 19:00N 20°29' W 086°59'0 0.0
2017-Dec-07 18:30N 20°29' W 086°59'0 0.0
2017-Dec-07 18:00N 20°29' W 086°59'0 0.0
2017-Dec-07 17:30N 20°29' W 086°59'0 0.0
2017-Dec-07 17:00N 20°29' W 086°59'0 0.0
2017-Dec-07 16:30N 20°29' W 086°59'0 0.0
2017-Dec-07 16:00N 20°29' W 086°59'0 1.0
2017-Dec-07 15:30N 20°29' W 086°59'5 9.8
2017-Dec-07 15:00N 20°34' W 086°59'816.5
2017-Dec-07 14:30N 20°39' W 086°53'23120.1
2017-Dec-07 03:00N 19°42' W 082°54'   060 / 201017.010.8 23.021.521.0
2017-Dec-03 12:00N 26°42' W 091°18'15819.2 150 / 91020.010.8 25.013.126.0
2017-Dec-03 03:44N 28°33' W 093°26'2319.1
2017-Dec-03 02:32N 28°46' W 093°47'119.0
2017-Dec-03 02:30N 28°47' W 093°48'1117.2
2017-Dec-03 01:50N 28°54' W 093°58'516.5
2017-Dec-03 01:30N 28°57' W 094°03'816.3
2017-Dec-03 01:00N 29°02' W 094°11'816.3
2017-Dec-03 00:30N 29°06' W 094°19'816.0
2017-Dec-03 00:00N 29°08' W 094°27'816.2
2017-Dec-02 23:30N 29°14' W 094°34'713.5
2017-Dec-02 23:01N 29°19' W 094°39'612.9
2017-Dec-02 22:31N 29°20' W 094°46'2 0.3
2017-Dec-02 14:11N 29°19' W 094°48'0 0.0
2017-Dec-02 13:59N 29°19' W 094°48'0 0.2
2017-Dec-02 13:30N 29°19' W 094°48'2 3.5
2017-Dec-02 12:59N 29°20' W 094°47'  
Track history (hours):
 
Tides and Currents Weather Stations Pressure Air Temp Water Temp Dewpoint Dewpoint Depression Visibility Wind Speed Wind Dir Waves Ship Positions

Carnival Freedom

Last reported at 2017-Dec-11 16:59 UTC. Time now 2017-Dec-12 23:47 UTC.
Position N 20°29' W 086°59'.

Type: Ship. MMSI: 371154000.

Date/timePositionNaut miles runAvg speedWind from/ knotsBaromVisibWave heightAir tempDewpointWater temp
2017-Dec-11 16:59N 20°29' W 086°59'0 0.0
2017-Dec-11 16:29N 20°29' W 086°59'0 0.0
2017-Dec-11 15:59N 20°29' W 086°59'0 0.0
2017-Dec-11 15:29N 20°29' W 086°59'0 0.0
2017-Dec-11 14:59N 20°29' W 086°59'0 0.4
2017-Dec-11 14:30N 20°29' W 086°59'5 9.3
2017-Dec-11 14:00N 20°33' W 086°59'611.9
2017-Dec-11 13:30N 20°38' W 086°56'45716.6
2017-Dec-10 10:00N 27°00' W 091°30'22119.8 050 / 151028.010.8 17.0-7.316.0
2017-Dec-09 22:50N 29°21' W 094°43'410.7
2017-Dec-09 22:30N 29°19' W 094°47'1 0.1
2017-Dec-09 15:21N 29°19' W 094°48'0 0.0
2017-Dec-09 14:42N 29°19' W 094°48'0 0.0
2017-Dec-09 14:25N 29°19' W 094°48'0 0.0
2017-Dec-09 13:55N 29°19' W 094°48'1 1.3
2017-Dec-09 13:30N 29°19' W 094°47'2 4.1
2017-Dec-09 13:00N 29°21' W 094°46'67318.7
2017-Dec-08 00:57N 20°41' W 086°53'1022.5
2017-Dec-08 00:30N 20°33' W 086°59'5 9.9
2017-Dec-08 00:00N 20°29' W 086°59'0 0.0
2017-Dec-07 23:30N 20°29' W 086°59'0 0.0
2017-Dec-07 23:00N 20°29' W 086°59'0 0.0
2017-Dec-07 22:30N 20°29' W 086°59'0 0.0
2017-Dec-07 22:00N 20°29' W 086°59'0 0.0
2017-Dec-07 21:30N 20°29' W 086°59'0 0.0
2017-Dec-07 21:00N 20°29' W 086°59'0 0.0
2017-Dec-07 20:30N 20°29' W 086°59'0 0.0
2017-Dec-07 19:57N 20°29' W 086°59'0 0.0
2017-Dec-07 19:30N 20°29' W 086°59'0 0.0
2017-Dec-07 19:00N 20°29' W 086°59'0 0.0
2017-Dec-07 18:30N 20°29' W 086°59'0 0.0
2017-Dec-07 18:00N 20°29' W 086°59'0 0.0
2017-Dec-07 17:30N 20°29' W 086°59'0 0.0
2017-Dec-07 17:00N 20°29' W 086°59'0 0.0
2017-Dec-07 16:30N 20°29' W 086°59'0 0.0
2017-Dec-07 16:00N 20°29' W 086°59'0 1.0
2017-Dec-07 15:30N 20°29' W 086°59'5 9.8
2017-Dec-07 15:00N 20°34' W 086°59'816.5
2017-Dec-07 14:30N 20°39' W 086°53'23120.1
2017-Dec-07 03:00N 19°42' W 082°54'   060 / 201017.010.8 23.021.521.0
2017-Dec-03 12:00N 26°42' W 091°18'15819.2 150 / 91020.010.8 25.013.126.0
2017-Dec-03 03:44N 28°33' W 093°26'2319.1
2017-Dec-03 02:32N 28°46' W 093°47'119.0
2017-Dec-03 02:30N 28°47' W 093°48'1117.2
2017-Dec-03 01:50N 28°54' W 093°58'516.5
2017-Dec-03 01:30N 28°57' W 094°03'816.3
2017-Dec-03 01:00N 29°02' W 094°11'816.3
2017-Dec-03 00:30N 29°06' W 094°19'816.0
2017-Dec-03 00:00N 29°08' W 094°27'816.2
2017-Dec-02 23:30N 29°14' W 094°34'713.5
2017-Dec-02 23:01N 29°19' W 094°39'612.9
2017-Dec-02 22:31N 29°20' W 094°46'2 0.3
2017-Dec-02 14:11N 29°19' W 094°48'0 0.0
2017-Dec-02 13:59N 29°19' W 094°48'0 0.2
2017-Dec-02 13:30N 29°19' W 094°48'2 3.5
2017-Dec-02 12:59N 29°20' W 094°47'  

Dump ship's entire track history